Terminal Aerodrome Forecast
Issued by NWS

Home | Current Version | Previous Version | Text Only | Print | Product List | Glossary On
Versions: 1 2 3 4 5 6 7 8 9 10 11 12 13 14
000
FTUS46 KSTO 151738
TAFRDD
TAF
KRDD 151738Z 1518/1618 32005KT P6SM BKN200
     FM160400 36008KT P6SM BKN200
     FM161200 35015G22KT P6SM SKC
     FM161700 36020G28KT P6SM SKC=

USA.gov is the U.S. government's official web portal to all federal, state and local government web resources and services.